sim
Sign-in with your pilot id or email,
or register
Callsign
Passwort

Schedule Details

Flight Number: DLH1645
Departure: Gdansk Lech Walesa Airport (EPGD) at 16:05
Arrival: Munich Airport (EDDM) at 17:45
Route: Lufthansa Passenger Schedule. Enter filed route here before submitting Pirep.

Weather Information
Getting current METAR information for EPGD 010630Z 06008KT 020V090 9999 BKN009 14/12 Q1009
Getting current METAR information for EDDM 010620Z 00000KT 0800 R08L/0550D R08R/0275N FG SCT001 05/04 Q1009 BECMG 1500 BCFG

Schedule Frequency

Route Map